Fairchild AFB, WA

9:16 AM PDT on August 21, 2014 (GMT -0700)
Fairchild Air Force Base | Change Station
CLOSE
Current Station
Airport
Location: Spokane Fairchild,
Elevation: 2461 ft
Nearby Weather Stations

Elev 2461 ft 47.62 °N, 117.66 °W | Updated 18 minutes ago

Scattered Clouds
Scattered Clouds
63 °F
Feels Like 63 °F
N
5
Wind Variable Wind from Variable

Today
High -- | Low -- °F
--% Chance of Precip.
Yesterday
High -- | Low -- °F
Precip. -- in
5:54 AM 7:51 PM
Waning Crescent, 13% visible
Pressure 29.99 in
Visibility 10.0 miles
Clouds Scattered Clouds 11000 ft
Dew Point 49 °F
Humidity 61%
Rainfall 0.00 in
Snow Depth Not available.
UV 2 out of 12
Pollen 5.60 out of 12
PM2.5 Good
Flu Activity Not available.
METAR KSKA 211558Z AUTO VRB04KT 10SM SCT110 17/10 A3000 RMK AO2 SLP153 T01710096

More Conditions Fewer Conditions

Pressure 29.99 in
Visibility 10.0 miles
Clouds Scattered Clouds 11000 ft
Dew Point 49 °F
Humidity 61%
Rainfall 0.00 in
Snow Depth Not available.
UV 2 out of 12
Pollen 5.60 out of 12
PM2.5 Good
Flu Activity Not available.
METAR KSKA 211558Z AUTO VRB04KT 10SM SCT110 17/10 A3000 RMK AO2 SLP153 T01710096

More Conditions Fewer Conditions

10-Day Weather Forecast

Almanac

Astronomy

Aug. 21, 2014 Rise Set
Actual Time 5:54 AM PDT 7:51 PM PDT
Civil Twilight 5:21 AM PDT 8:24 PM PDT
Nautical Twilight 4:40 AM PDT 9:05 PM PDT
Astronomical Twilight 3:55 AM PDT 9:50 PM PDT
Moon 2:21 AM PDT 5:29 PM PDT
Length of Visible Light 15h 03m
Length of Day
13h 57m
Tomorrow will be 3m 11s shorter.
Waning Crescent, 13% of the Moon is Illuminated
Today
Waning Crescent
Aug 25
New
Sep 2
First Quarter
Sep 8
Full
Sep 15
Last Quarter

Today's Extremes

State Highs State Lows

Community

WunderPhotos

Upload Photos

1,745,950 photos uploaded!

Nearby

Air Quality

  Air Quality AQ Index Pollutant
Yesterday Good
OZONE
Yesterday Good
PM10
Current Good
PM2.5
Thursday Good
PM10
Thursday Good
OZONE

Snow Depth

Station Depth Elevation
Quartz Peak 1 in 4700 ft
Bunchgrass Meadow 0 in 5000 ft
Moses Mountain 1 in 5300 ft
Sentinel Butte 0 in 4920 ft
Sourdough Gulch 0 in 4000 ft

Earthquake Activity

City Distance Mag. Time & Date
No recent earthquake activity has been reported nearby.
Minimum magnitude displayed is 2.5.

Coastal Water Temperatures

Place Temperature
No Stations Reporting

Nearby Weather Stations